sensor_id;sensor_type;location;lat;lon;timestamp;P1;durP1;ratioP1;P2;durP2;ratioP2
20511;SDS011;10414;52.074;5.126;2023-01-29T00:01:59;24.52;;;11.32;;
20511;SDS011;10414;52.074;5.126;2023-01-29T00:04:26;22.17;;;11.20;;
20511;SDS011;10414;52.074;5.126;2023-01-29T00:06:56;24.05;;;11.13;;
20511;SDS011;10414;52.074;5.126;2023-01-29T00:09:24;26.77;;;12.43;;
20511;SDS011;10414;52.074;5.126;2023-01-29T00:11:51;24.42;;;11.38;;
20511;SDS011;10414;52.074;5.126;2023-01-29T00:14:18;22.73;;;11.02;;
20511;SDS011;10414;52.074;5.126;2023-01-29T00:16:46;25.77;;;11.93;;
20511;SDS011;10414;52.074;5.126;2023-01-29T00:19:13;23.98;;;11.50;;
20511;SDS011;10414;52.074;5.126;2023-01-29T00:21:41;23.92;;;11.30;;
20511;SDS011;10414;52.074;5.126;2023-01-29T00:24:08;23.60;;;11.70;;
20511;SDS011;10414;52.074;5.126;2023-01-29T00:26:36;23.25;;;10.88;;
20511;SDS011;10414;52.074;5.126;2023-01-29T00:29:07;25.35;;;11.35;;
20511;SDS011;10414;52.074;5.126;2023-01-29T00:31:37;23.65;;;10.90;;
20511;SDS011;10414;52.074;5.126;2023-01-29T00:34:04;22.98;;;10.85;;
20511;SDS011;10414;52.074;5.126;2023-01-29T00:36:31;19.88;;;9.63;;
20511;SDS011;10414;52.074;5.126;2023-01-29T00:38:58;22.85;;;11.18;;
20511;SDS011;10414;52.074;5.126;2023-01-29T00:41:34;21.83;;;11.10;;
20511;SDS011;10414;52.074;5.126;2023-01-29T00:44:21;25.67;;;11.38;;
20511;SDS011;10414;52.074;5.126;2023-01-29T00:47:12;25.15;;;11.63;;
20511;SDS011;10414;52.074;5.126;2023-01-29T00:49:55;22.60;;;10.38;;
20511;SDS011;10414;52.074;5.126;2023-01-29T00:52:23;23.23;;;11.00;;
20511;SDS011;10414;52.074;5.126;2023-01-29T00:54:50;22.35;;;11.38;;
20511;SDS011;10414;52.074;5.126;2023-01-29T00:57:18;21.90;;;11.30;;
20511;SDS011;10414;52.074;5.126;2023-01-29T00:59:46;27.92;;;11.15;;
20511;SDS011;10414;52.074;5.126;2023-01-29T01:02:13;22.38;;;10.73;;
20511;SDS011;10414;52.074;5.126;2023-01-29T01:04:57;21.95;;;10.30;;
20511;SDS011;10414;52.074;5.126;2023-01-29T01:07:26;23.00;;;10.95;;
20511;SDS011;10414;52.074;5.126;2023-01-29T01:09:53;21.88;;;10.07;;
20511;SDS011;10414;52.074;5.126;2023-01-29T01:12:39;23.58;;;10.18;;
20511;SDS011;10414;52.074;5.126;2023-01-29T01:15:06;21.98;;;9.82;;
20511;SDS011;10414;52.074;5.126;2023-01-29T01:17:33;21.52;;;10.48;;
20511;SDS011;10414;52.074;5.126;2023-01-29T01:20:03;22.38;;;9.77;;
20511;SDS011;10414;52.074;5.126;2023-01-29T01:22:35;20.20;;;10.27;;
20511;SDS011;10414;52.074;5.126;2023-01-29T01:25:01;21.05;;;9.73;;
20511;SDS011;10414;52.074;5.126;2023-01-29T01:27:32;22.15;;;10.55;;
20511;SDS011;10414;52.074;5.126;2023-01-29T01:30:03;20.77;;;9.93;;
20511;SDS011;10414;52.074;5.126;2023-01-29T01:32:31;21.58;;;10.80;;
20511;SDS011;10414;52.074;5.126;2023-01-29T01:35:00;22.30;;;10.02;;
20511;SDS011;10414;52.074;5.126;2023-01-29T01:37:26;22.83;;;10.65;;
20511;SDS011;10414;52.074;5.126;2023-01-29T01:39:56;22.27;;;10.07;;
20511;SDS011;10414;52.074;5.126;2023-01-29T01:42:26;19.58;;;9.82;;
20511;SDS011;10414;52.074;5.126;2023-01-29T01:44:56;23.13;;;10.60;;
20511;SDS011;10414;52.074;5.126;2023-01-29T01:47:31;18.90;;;9.77;;
20511;SDS011;10414;52.074;5.126;2023-01-29T01:50:02;20.10;;;10.02;;
20511;SDS011;10414;52.074;5.126;2023-01-29T01:52:32;22.30;;;10.25;;
20511;SDS011;10414;52.074;5.126;2023-01-29T01:55:02;23.50;;;10.97;;
20511;SDS011;10414;52.074;5.126;2023-01-29T01:57:30;21.63;;;9.93;;
20511;SDS011;10414;52.074;5.126;2023-01-29T02:00:04;23.42;;;11.05;;
20511;SDS011;10414;52.074;5.126;2023-01-29T02:02:38;21.67;;;10.32;;
20511;SDS011;10414;52.074;5.126;2023-01-29T02:05:26;20.95;;;10.35;;
20511;SDS011;10414;52.074;5.126;2023-01-29T02:08:12;25.85;;;10.18;;
20511;SDS011;10414;52.074;5.126;2023-01-29T02:10:58;21.30;;;10.13;;
20511;SDS011;10414;52.074;5.126;2023-01-29T02:13:25;21.58;;;10.00;;
20511;SDS011;10414;52.074;5.126;2023-01-29T02:15:52;21.58;;;10.00;;
20511;SDS011;10414;52.074;5.126;2023-01-29T02:18:20;24.92;;;10.70;;
20511;SDS011;10414;52.074;5.126;2023-01-29T02:20:48;23.10;;;11.40;;
20511;SDS011;10414;52.074;5.126;2023-01-29T02:26:44;24.35;;;11.13;;
20511;SDS011;10414;52.074;5.126;2023-01-29T02:29:22;20.77;;;10.38;;
20511;SDS011;10414;52.074;5.126;2023-01-29T02:31:59;25.25;;;10.63;;
20511;SDS011;10414;52.074;5.126;2023-01-29T02:34:44;22.85;;;10.73;;
20511;SDS011;10414;52.074;5.126;2023-01-29T02:37:36;24.02;;;11.38;;
20511;SDS011;10414;52.074;5.126;2023-01-29T02:40:07;21.98;;;10.90;;
20511;SDS011;10414;52.074;5.126;2023-01-29T02:42:42;21.70;;;10.65;;
20511;SDS011;10414;52.074;5.126;2023-01-29T02:45:23;24.83;;;11.37;;
20511;SDS011;10414;52.074;5.126;2023-01-29T02:47:58;26.67;;;11.68;;
20511;SDS011;10414;52.074;5.126;2023-01-29T02:50:28;23.40;;;10.80;;
20511;SDS011;10414;52.074;5.126;2023-01-29T02:53:06;21.50;;;10.52;;
20511;SDS011;10414;52.074;5.126;2023-01-29T02:55:37;24.17;;;11.68;;
20511;SDS011;10414;52.074;5.126;2023-01-29T02:58:12;24.10;;;11.95;;
20511;SDS011;10414;52.074;5.126;2023-01-29T03:00:45;24.27;;;11.68;;
20511;SDS011;10414;52.074;5.126;2023-01-29T03:03:16;23.55;;;12.05;;
20511;SDS011;10414;52.074;5.126;2023-01-29T03:05:48;22.50;;;10.88;;
20511;SDS011;10414;52.074;5.126;2023-01-29T03:08:22;23.63;;;11.10;;
20511;SDS011;10414;52.074;5.126;2023-01-29T03:11:02;27.00;;;12.00;;
20511;SDS011;10414;52.074;5.126;2023-01-29T03:13:34;27.38;;;12.82;;
20511;SDS011;10414;52.074;5.126;2023-01-29T03:16:08;28.85;;;13.77;;
20511;SDS011;10414;52.074;5.126;2023-01-29T03:18:41;28.45;;;13.07;;
20511;SDS011;10414;52.074;5.126;2023-01-29T03:21:18;30.15;;;13.48;;
20511;SDS011;10414;52.074;5.126;2023-01-29T03:24:07;27.38;;;13.77;;
20511;SDS011;10414;52.074;5.126;2023-01-29T03:26:53;29.13;;;13.77;;
20511;SDS011;10414;52.074;5.126;2023-01-29T03:29:44;32.70;;;14.70;;
20511;SDS011;10414;52.074;5.126;2023-01-29T03:32:32;30.47;;;13.33;;
20511;SDS011;10414;52.074;5.126;2023-01-29T03:35:01;28.23;;;13.20;;
20511;SDS011;10414;52.074;5.126;2023-01-29T03:37:32;28.90;;;12.48;;
20511;SDS011;10414;52.074;5.126;2023-01-29T03:40:03;29.17;;;14.43;;
20511;SDS011;10414;52.074;5.126;2023-01-29T03:42:34;32.58;;;14.80;;
20511;SDS011;10414;52.074;5.126;2023-01-29T03:45:10;30.70;;;13.40;;
20511;SDS011;10414;52.074;5.126;2023-01-29T03:47:43;30.27;;;14.98;;
20511;SDS011;10414;52.074;5.126;2023-01-29T03:50:20;30.35;;;13.55;;
20511;SDS011;10414;52.074;5.126;2023-01-29T03:53:00;28.15;;;13.40;;
20511;SDS011;10414;52.074;5.126;2023-01-29T03:55:36;31.45;;;14.88;;
20511;SDS011;10414;52.074;5.126;2023-01-29T03:58:13;29.58;;;14.18;;
20511;SDS011;10414;52.074;5.126;2023-01-29T04:00:52;26.17;;;13.80;;
20511;SDS011;10414;52.074;5.126;2023-01-29T04:03:28;29.02;;;13.45;;
20511;SDS011;10414;52.074;5.126;2023-01-29T04:06:03;29.05;;;13.77;;
20511;SDS011;10414;52.074;5.126;2023-01-29T04:08:39;29.33;;;13.15;;
20511;SDS011;10414;52.074;5.126;2023-01-29T04:11:18;29.85;;;13.48;;
20511;SDS011;10414;52.074;5.126;2023-01-29T04:13:47;31.05;;;13.48;;
20511;SDS011;10414;52.074;5.126;2023-01-29T04:16:16;26.42;;;13.15;;
20511;SDS011;10414;52.074;5.126;2023-01-29T04:18:47;30.25;;;13.68;;
20511;SDS011;10414;52.074;5.126;2023-01-29T04:21:15;30.70;;;13.05;;
20511;SDS011;10414;52.074;5.126;2023-01-29T04:23:45;30.63;;;14.10;;
20511;SDS011;10414;52.074;5.126;2023-01-29T04:26:18;30.38;;;13.70;;
20511;SDS011;10414;52.074;5.126;2023-01-29T04:29:00;29.77;;;13.60;;
20511;SDS011;10414;52.074;5.126;2023-01-29T04:31:38;27.42;;;12.65;;
20511;SDS011;10414;52.074;5.126;2023-01-29T04:34:12;29.23;;;13.50;;
20511;SDS011;10414;52.074;5.126;2023-01-29T04:36:49;29.08;;;13.70;;
20511;SDS011;10414;52.074;5.126;2023-01-29T04:39:30;28.70;;;13.05;;
20511;SDS011;10414;52.074;5.126;2023-01-29T04:42:05;28.83;;;12.73;;
20511;SDS011;10414;52.074;5.126;2023-01-29T04:44:39;28.38;;;13.48;;
20511;SDS011;10414;52.074;5.126;2023-01-29T04:47:15;30.63;;;14.48;;
20511;SDS011;10414;52.074;5.126;2023-01-29T04:49:55;29.35;;;13.13;;
20511;SDS011;10414;52.074;5.126;2023-01-29T04:52:30;30.02;;;13.90;;
20511;SDS011;10414;52.074;5.126;2023-01-29T04:55:02;29.77;;;13.32;;
20511;SDS011;10414;52.074;5.126;2023-01-29T04:57:34;33.53;;;14.05;;
20511;SDS011;10414;52.074;5.126;2023-01-29T05:00:11;29.05;;;12.68;;
20511;SDS011;10414;52.074;5.126;2023-01-29T05:02:42;27.40;;;13.43;;
20511;SDS011;10414;52.074;5.126;2023-01-29T05:05:12;25.85;;;13.40;;
20511;SDS011;10414;52.074;5.126;2023-01-29T05:07:41;32.80;;;14.38;;
20511;SDS011;10414;52.074;5.126;2023-01-29T05:10:09;30.98;;;13.80;;
20511;SDS011;10414;52.074;5.126;2023-01-29T05:12:39;29.13;;;14.23;;
20511;SDS011;10414;52.074;5.126;2023-01-29T05:15:13;30.17;;;13.52;;
20511;SDS011;10414;52.074;5.126;2023-01-29T05:17:44;29.90;;;14.90;;
20511;SDS011;10414;52.074;5.126;2023-01-29T05:20:13;31.60;;;13.85;;
20511;SDS011;10414;52.074;5.126;2023-01-29T05:22:40;31.40;;;14.25;;
20511;SDS011;10414;52.074;5.126;2023-01-29T05:25:12;27.83;;;13.57;;
20511;SDS011;10414;52.074;5.126;2023-01-29T05:27:52;28.80;;;13.43;;
20511;SDS011;10414;52.074;5.126;2023-01-29T05:30:34;28.20;;;13.35;;
20511;SDS011;10414;52.074;5.126;2023-01-29T05:33:02;31.05;;;13.93;;
20511;SDS011;10414;52.074;5.126;2023-01-29T05:35:31;29.30;;;13.88;;
20511;SDS011;10414;52.074;5.126;2023-01-29T05:37:58;29.40;;;14.27;;
20511;SDS011;10414;52.074;5.126;2023-01-29T05:40:25;26.83;;;13.15;;
20511;SDS011;10414;52.074;5.126;2023-01-29T05:42:52;30.08;;;13.35;;
20511;SDS011;10414;52.074;5.126;2023-01-29T05:45:22;30.33;;;14.02;;
20511;SDS011;10414;52.074;5.126;2023-01-29T05:47:49;27.23;;;13.30;;
20511;SDS011;10414;52.074;5.126;2023-01-29T05:50:15;28.85;;;13.35;;
20511;SDS011;10414;52.074;5.126;2023-01-29T05:52:44;26.77;;;13.93;;
20511;SDS011;10414;52.074;5.126;2023-01-29T05:55:11;29.45;;;14.18;;
20511;SDS011;10414;52.074;5.126;2023-01-29T05:57:38;30.13;;;13.75;;
20511;SDS011;10414;52.074;5.126;2023-01-29T06:00:06;28.13;;;13.90;;
20511;SDS011;10414;52.074;5.126;2023-01-29T06:02:34;29.35;;;14.40;;
20511;SDS011;10414;52.074;5.126;2023-01-29T06:05:01;29.75;;;13.48;;
20511;SDS011;10414;52.074;5.126;2023-01-29T06:07:27;28.73;;;14.10;;
20511;SDS011;10414;52.074;5.126;2023-01-29T06:09:57;30.77;;;13.93;;
20511;SDS011;10414;52.074;5.126;2023-01-29T06:12:25;27.55;;;13.00;;
20511;SDS011;10414;52.074;5.126;2023-01-29T06:14:54;28.27;;;13.90;;
20511;SDS011;10414;52.074;5.126;2023-01-29T06:17:26;29.05;;;13.68;;
20511;SDS011;10414;52.074;5.126;2023-01-29T06:19:53;27.65;;;14.02;;
20511;SDS011;10414;52.074;5.126;2023-01-29T06:22:20;29.85;;;14.05;;
20511;SDS011;10414;52.074;5.126;2023-01-29T06:24:47;30.95;;;13.93;;
20511;SDS011;10414;52.074;5.126;2023-01-29T06:27:15;30.42;;;15.05;;
20511;SDS011;10414;52.074;5.126;2023-01-29T06:29:42;25.20;;;13.02;;
20511;SDS011;10414;52.074;5.126;2023-01-29T06:32:09;32.08;;;15.50;;
20511;SDS011;10414;52.074;5.126;2023-01-29T06:34:43;30.20;;;13.57;;
20511;SDS011;10414;52.074;5.126;2023-01-29T06:37:11;26.67;;;13.65;;
20511;SDS011;10414;52.074;5.126;2023-01-29T06:39:38;28.95;;;14.00;;
20511;SDS011;10414;52.074;5.126;2023-01-29T06:42:04;24.83;;;12.80;;
20511;SDS011;10414;52.074;5.126;2023-01-29T06:44:36;29.55;;;13.55;;
20511;SDS011;10414;52.074;5.126;2023-01-29T06:47:09;29.58;;;13.75;;
20511;SDS011;10414;52.074;5.126;2023-01-29T06:49:36;26.08;;;12.50;;
20511;SDS011;10414;52.074;5.126;2023-01-29T06:52:03;27.20;;;13.30;;
20511;SDS011;10414;52.074;5.126;2023-01-29T06:54:30;26.05;;;13.07;;
20511;SDS011;10414;52.074;5.126;2023-01-29T06:56:59;25.20;;;11.63;;
20511;SDS011;10414;52.074;5.126;2023-01-29T06:59:26;25.35;;;12.38;;
20511;SDS011;10414;52.074;5.126;2023-01-29T07:02:00;28.05;;;13.77;;
20511;SDS011;10414;52.074;5.126;2023-01-29T07:04:36;29.55;;;13.98;;
20511;SDS011;10414;52.074;5.126;2023-01-29T07:07:03;32.22;;;14.35;;
20511;SDS011;10414;52.074;5.126;2023-01-29T07:09:37;30.98;;;14.10;;
20511;SDS011;10414;52.074;5.126;2023-01-29T07:12:05;33.53;;;14.82;;
20511;SDS011;10414;52.074;5.126;2023-01-29T07:14:32;28.58;;;13.73;;
20511;SDS011;10414;52.074;5.126;2023-01-29T07:17:00;28.88;;;13.82;;
20511;SDS011;10414;52.074;5.126;2023-01-29T07:19:27;29.55;;;13.38;;
20511;SDS011;10414;52.074;5.126;2023-01-29T07:21:54;28.42;;;14.13;;
20511;SDS011;10414;52.074;5.126;2023-01-29T07:24:26;26.90;;;13.60;;
20511;SDS011;10414;52.074;5.126;2023-01-29T07:26:55;29.83;;;13.77;;
20511;SDS011;10414;52.074;5.126;2023-01-29T07:29:22;27.88;;;14.70;;
20511;SDS011;10414;52.074;5.126;2023-01-29T07:31:55;27.00;;;13.82;;
20511;SDS011;10414;52.074;5.126;2023-01-29T07:34:23;29.35;;;13.65;;
20511;SDS011;10414;52.074;5.126;2023-01-29T07:36:52;28.50;;;13.70;;
20511;SDS011;10414;52.074;5.126;2023-01-29T07:39:20;27.15;;;13.52;;
20511;SDS011;10414;52.074;5.126;2023-01-29T07:41:47;25.73;;;13.13;;
20511;SDS011;10414;52.074;5.126;2023-01-29T07:44:14;29.67;;;13.20;;
20511;SDS011;10414;52.074;5.126;2023-01-29T07:46:42;27.33;;;13.88;;
20511;SDS011;10414;52.074;5.126;2023-01-29T07:49:09;23.38;;;12.43;;
20511;SDS011;10414;52.074;5.126;2023-01-29T07:51:37;27.50;;;13.48;;
20511;SDS011;10414;52.074;5.126;2023-01-29T07:54:07;28.55;;;12.93;;
20511;SDS011;10414;52.074;5.126;2023-01-29T07:56:34;28.98;;;13.90;;
20511;SDS011;10414;52.074;5.126;2023-01-29T07:59:00;30.90;;;13.90;;
20511;SDS011;10414;52.074;5.126;2023-01-29T08:01:28;26.95;;;13.95;;
20511;SDS011;10414;52.074;5.126;2023-01-29T08:03:54;25.30;;;12.95;;
20511;SDS011;10414;52.074;5.126;2023-01-29T08:06:21;26.70;;;12.73;;
20511;SDS011;10414;52.074;5.126;2023-01-29T08:08:51;29.45;;;13.38;;
20511;SDS011;10414;52.074;5.126;2023-01-29T08:11:21;28.30;;;12.88;;
20511;SDS011;10414;52.074;5.126;2023-01-29T08:13:48;25.70;;;13.40;;
20511;SDS011;10414;52.074;5.126;2023-01-29T08:16:18;23.35;;;12.07;;
20511;SDS011;10414;52.074;5.126;2023-01-29T08:18:45;24.98;;;12.88;;
20511;SDS011;10414;52.074;5.126;2023-01-29T08:21:13;25.20;;;13.25;;
20511;SDS011;10414;52.074;5.126;2023-01-29T08:23:43;27.33;;;12.80;;
20511;SDS011;10414;52.074;5.126;2023-01-29T08:26:13;32.30;;;12.30;;
20511;SDS011;10414;52.074;5.126;2023-01-29T08:31:11;25.60;;;12.00;;
20511;SDS011;10414;52.074;5.126;2023-01-29T08:33:39;23.88;;;11.85;;
20511;SDS011;10414;52.074;5.126;2023-01-29T08:36:06;24.05;;;12.57;;
20511;SDS011;10414;52.074;5.126;2023-01-29T08:38:34;27.00;;;12.90;;
20511;SDS011;10414;52.074;5.126;2023-01-29T08:41:01;24.90;;;12.18;;
20511;SDS011;10414;52.074;5.126;2023-01-29T08:43:29;23.10;;;12.38;;
20511;SDS011;10414;52.074;5.126;2023-01-29T08:45:56;22.90;;;11.82;;
20511;SDS011;10414;52.074;5.126;2023-01-29T08:48:23;24.15;;;13.05;;
20511;SDS011;10414;52.074;5.126;2023-01-29T08:50:50;26.42;;;13.25;;
20511;SDS011;10414;52.074;5.126;2023-01-29T08:53:17;27.63;;;11.90;;
20511;SDS011;10414;52.074;5.126;2023-01-29T08:55:48;24.23;;;12.38;;
20511;SDS011;10414;52.074;5.126;2023-01-29T08:58:15;24.38;;;12.70;;
20511;SDS011;10414;52.074;5.126;2023-01-29T09:00:43;22.88;;;12.13;;
20511;SDS011;10414;52.074;5.126;2023-01-29T09:03:10;27.45;;;12.45;;
20511;SDS011;10414;52.074;5.126;2023-01-29T09:05:37;25.10;;;12.68;;
20511;SDS011;10414;52.074;5.126;2023-01-29T09:08:06;24.05;;;12.32;;
20511;SDS011;10414;52.074;5.126;2023-01-29T09:10:34;22.05;;;12.00;;
20511;SDS011;10414;52.074;5.126;2023-01-29T09:13:01;23.45;;;13.23;;
20511;SDS011;10414;52.074;5.126;2023-01-29T09:15:29;26.58;;;12.18;;
20511;SDS011;10414;52.074;5.126;2023-01-29T09:17:57;23.63;;;12.85;;
20511;SDS011;10414;52.074;5.126;2023-01-29T09:20:29;27.00;;;12.68;;
20511;SDS011;10414;52.074;5.126;2023-01-29T09:22:56;23.10;;;11.40;;
20511;SDS011;10414;52.074;5.126;2023-01-29T09:25:23;24.52;;;12.32;;
20511;SDS011;10414;52.074;5.126;2023-01-29T09:27:51;27.48;;;12.57;;
20511;SDS011;10414;52.074;5.126;2023-01-29T09:30:19;24.35;;;12.68;;
20511;SDS011;10414;52.074;5.126;2023-01-29T09:32:46;23.55;;;11.73;;
20511;SDS011;10414;52.074;5.126;2023-01-29T09:35:14;21.77;;;10.60;;
20511;SDS011;10414;52.074;5.126;2023-01-29T09:37:41;26.75;;;12.85;;
20511;SDS011;10414;52.074;5.126;2023-01-29T09:40:09;25.88;;;12.88;;
20511;SDS011;10414;52.074;5.126;2023-01-29T09:42:49;22.88;;;12.00;;
20511;SDS011;10414;52.074;5.126;2023-01-29T09:45:20;21.52;;;11.93;;
20511;SDS011;10414;52.074;5.126;2023-01-29T09:47:49;27.75;;;12.60;;
20511;SDS011;10414;52.074;5.126;2023-01-29T09:50:20;26.17;;;13.00;;
20511;SDS011;10414;52.074;5.126;2023-01-29T09:52:52;24.73;;;12.43;;
20511;SDS011;10414;52.074;5.126;2023-01-29T09:55:25;25.35;;;13.02;;
20511;SDS011;10414;52.074;5.126;2023-01-29T09:57:55;24.10;;;12.50;;
20511;SDS011;10414;52.074;5.126;2023-01-29T10:00:27;28.95;;;13.23;;
20511;SDS011;10414;52.074;5.126;2023-01-29T10:03:03;26.42;;;12.88;;
20511;SDS011;10414;52.074;5.126;2023-01-29T10:08:41;30.40;;;13.63;;
20511;SDS011;10414;52.074;5.126;2023-01-29T10:11:25;29.48;;;13.10;;
20511;SDS011;10414;52.074;5.126;2023-01-29T10:14:03;24.70;;;12.60;;
20511;SDS011;10414;52.074;5.126;2023-01-29T10:16:40;28.48;;;13.95;;
20511;SDS011;10414;52.074;5.126;2023-01-29T10:19:26;31.30;;;13.73;;
20511;SDS011;10414;52.074;5.126;2023-01-29T10:22:08;24.65;;;12.55;;
20511;SDS011;10414;52.074;5.126;2023-01-29T10:24:50;23.20;;;12.13;;
20511;SDS011;10414;52.074;5.126;2023-01-29T10:27:22;28.58;;;14.20;;
20511;SDS011;10414;52.074;5.126;2023-01-29T10:29:52;25.48;;;13.35;;
20511;SDS011;10414;52.074;5.126;2023-01-29T10:32:22;29.05;;;13.32;;
20511;SDS011;10414;52.074;5.126;2023-01-29T10:34:52;28.00;;;14.35;;
20511;SDS011;10414;52.074;5.126;2023-01-29T10:37:25;27.83;;;13.60;;
20511;SDS011;10414;52.074;5.126;2023-01-29T10:39:57;30.55;;;14.23;;
20511;SDS011;10414;52.074;5.126;2023-01-29T10:42:27;28.45;;;13.90;;
20511;SDS011;10414;52.074;5.126;2023-01-29T10:45:03;28.08;;;13.40;;
20511;SDS011;10414;52.074;5.126;2023-01-29T10:50:38;28.30;;;14.30;;
20511;SDS011;10414;52.074;5.126;2023-01-29T10:53:20;30.38;;;14.60;;
20511;SDS011;10414;52.074;5.126;2023-01-29T10:56:01;27.63;;;13.43;;
20511;SDS011;10414;52.074;5.126;2023-01-29T10:58:37;29.33;;;13.90;;
20511;SDS011;10414;52.074;5.126;2023-01-29T11:01:10;30.90;;;14.15;;
20511;SDS011;10414;52.074;5.126;2023-01-29T11:03:37;29.25;;;14.45;;
20511;SDS011;10414;52.074;5.126;2023-01-29T11:06:08;26.95;;;14.52;;
20511;SDS011;10414;52.074;5.126;2023-01-29T11:08:41;29.92;;;13.85;;
20511;SDS011;10414;52.074;5.126;2023-01-29T11:11:12;30.05;;;14.40;;
20511;SDS011;10414;52.074;5.126;2023-01-29T11:13:41;27.30;;;13.88;;
20511;SDS011;10414;52.074;5.126;2023-01-29T11:16:12;32.88;;;15.43;;
20511;SDS011;10414;52.074;5.126;2023-01-29T11:18:49;30.08;;;15.10;;
20511;SDS011;10414;52.074;5.126;2023-01-29T11:21:17;28.88;;;14.60;;
20511;SDS011;10414;52.074;5.126;2023-01-29T11:23:46;32.80;;;15.82;;
20511;SDS011;10414;52.074;5.126;2023-01-29T11:26:16;33.78;;;15.70;;
20511;SDS011;10414;52.074;5.126;2023-01-29T11:28:45;32.42;;;15.35;;
20511;SDS011;10414;52.074;5.126;2023-01-29T11:31:16;31.08;;;15.38;;
20511;SDS011;10414;52.074;5.126;2023-01-29T11:33:46;31.42;;;15.05;;
20511;SDS011;10414;52.074;5.126;2023-01-29T11:36:20;33.22;;;15.65;;
20511;SDS011;10414;52.074;5.126;2023-01-29T11:39:07;33.85;;;16.15;;
20511;SDS011;10414;52.074;5.126;2023-01-29T11:41:42;32.83;;;15.63;;
20511;SDS011;10414;52.074;5.126;2023-01-29T11:44:25;32.35;;;15.82;;
20511;SDS011;10414;52.074;5.126;2023-01-29T11:46:54;29.77;;;14.85;;
20511;SDS011;10414;52.074;5.126;2023-01-29T11:49:27;33.15;;;15.57;;
20511;SDS011;10414;52.074;5.126;2023-01-29T11:51:58;35.03;;;15.40;;
20511;SDS011;10414;52.074;5.126;2023-01-29T11:54:30;36.67;;;15.57;;
20511;SDS011;10414;52.074;5.126;2023-01-29T11:56:59;32.53;;;16.00;;
20511;SDS011;10414;52.074;5.126;2023-01-29T11:59:29;34.53;;;16.60;;
20511;SDS011;10414;52.074;5.126;2023-01-29T12:02:17;36.33;;;15.95;;
20511;SDS011;10414;52.074;5.126;2023-01-29T12:04:48;36.03;;;16.58;;
20511;SDS011;10414;52.074;5.126;2023-01-29T12:07:16;32.50;;;16.10;;
20511;SDS011;10414;52.074;5.126;2023-01-29T12:09:49;39.97;;;16.85;;
20511;SDS011;10414;52.074;5.126;2023-01-29T12:12:26;33.83;;;16.30;;
20511;SDS011;10414;52.074;5.126;2023-01-29T12:15:02;32.47;;;15.40;;
20511;SDS011;10414;52.074;5.126;2023-01-29T12:17:44;33.33;;;16.15;;
20511;SDS011;10414;52.074;5.126;2023-01-29T12:20:19;31.52;;;15.68;;
20511;SDS011;10414;52.074;5.126;2023-01-29T12:22:51;33.03;;;16.58;;
20511;SDS011;10414;52.074;5.126;2023-01-29T12:25:33;33.88;;;17.38;;
20511;SDS011;10414;52.074;5.126;2023-01-29T12:28:09;35.65;;;16.13;;
20511;SDS011;10414;52.074;5.126;2023-01-29T12:31:00;33.60;;;16.27;;
20511;SDS011;10414;52.074;5.126;2023-01-29T12:33:37;34.05;;;15.55;;
20511;SDS011;10414;52.074;5.126;2023-01-29T12:36:09;33.60;;;16.17;;
20511;SDS011;10414;52.074;5.126;2023-01-29T12:38:42;36.70;;;15.77;;
20511;SDS011;10414;52.074;5.126;2023-01-29T12:41:13;35.72;;;16.42;;
20511;SDS011;10414;52.074;5.126;2023-01-29T12:43:50;31.83;;;15.23;;
20511;SDS011;10414;52.074;5.126;2023-01-29T12:46:23;35.92;;;15.73;;
20511;SDS011;10414;52.074;5.126;2023-01-29T12:48:52;35.55;;;16.17;;
20511;SDS011;10414;52.074;5.126;2023-01-29T12:51:24;33.28;;;15.40;;
20511;SDS011;10414;52.074;5.126;2023-01-29T12:53:56;34.47;;;16.50;;
20511;SDS011;10414;52.074;5.126;2023-01-29T12:56:30;34.42;;;16.20;;
20511;SDS011;10414;52.074;5.126;2023-01-29T12:59:01;33.28;;;16.10;;
20511;SDS011;10414;52.074;5.126;2023-01-29T13:01:39;34.80;;;16.13;;
20511;SDS011;10414;52.074;5.126;2023-01-29T13:04:12;31.42;;;16.02;;
20511;SDS011;10414;52.074;5.126;2023-01-29T13:06:44;35.72;;;16.45;;
20511;SDS011;10414;52.074;5.126;2023-01-29T13:09:16;28.55;;;14.75;;
20511;SDS011;10414;52.074;5.126;2023-01-29T13:11:49;31.98;;;14.68;;
20511;SDS011;10414;52.074;5.126;2023-01-29T13:14:19;27.83;;;14.75;;
20511;SDS011;10414;52.074;5.126;2023-01-29T13:16:50;35.03;;;16.75;;
20511;SDS011;10414;52.074;5.126;2023-01-29T13:19:21;33.78;;;16.40;;
20511;SDS011;10414;52.074;5.126;2023-01-29T13:21:52;29.40;;;15.23;;
20511;SDS011;10414;52.074;5.126;2023-01-29T13:24:23;30.40;;;14.63;;
20511;SDS011;10414;52.074;5.126;2023-01-29T13:26:53;28.67;;;14.70;;
20511;SDS011;10414;52.074;5.126;2023-01-29T13:29:22;30.27;;;15.45;;
20511;SDS011;10414;52.074;5.126;2023-01-29T13:31:50;28.42;;;14.43;;
20511;SDS011;10414;52.074;5.126;2023-01-29T13:34:20;28.35;;;15.20;;
20511;SDS011;10414;52.074;5.126;2023-01-29T13:36:51;28.13;;;15.32;;
20511;SDS011;10414;52.074;5.126;2023-01-29T13:39:21;27.55;;;13.98;;
20511;SDS011;10414;52.074;5.126;2023-01-29T13:41:50;31.52;;;15.07;;
20511;SDS011;10414;52.074;5.126;2023-01-29T13:44:21;31.95;;;14.98;;
20511;SDS011;10414;52.074;5.126;2023-01-29T13:46:52;30.60;;;14.60;;
20511;SDS011;10414;52.074;5.126;2023-01-29T13:49:32;27.98;;;14.85;;
20511;SDS011;10414;52.074;5.126;2023-01-29T13:52:15;29.38;;;15.68;;
20511;SDS011;10414;52.074;5.126;2023-01-29T13:54:50;27.23;;;14.20;;
20511;SDS011;10414;52.074;5.126;2023-01-29T14:06:34;29.80;;;14.48;;
20511;SDS011;10414;52.074;5.126;2023-01-29T14:09:15;28.70;;;14.70;;
20511;SDS011;10414;52.074;5.126;2023-01-29T14:15:16;30.98;;;15.38;;
20511;SDS011;10414;52.074;5.126;2023-01-29T14:20:50;28.02;;;14.15;;
20511;SDS011;10414;52.074;5.126;2023-01-29T14:23:26;29.23;;;14.93;;
20511;SDS011;10414;52.074;5.126;2023-01-29T14:26:04;27.98;;;14.75;;
20511;SDS011;10414;52.074;5.126;2023-01-29T14:28:50;30.42;;;15.23;;
20511;SDS011;10414;52.074;5.126;2023-01-29T14:31:26;32.72;;;15.32;;
20511;SDS011;10414;52.074;5.126;2023-01-29T14:34:01;32.53;;;15.40;;
20511;SDS011;10414;52.074;5.126;2023-01-29T14:36:38;32.13;;;14.73;;
20511;SDS011;10414;52.074;5.126;2023-01-29T14:39:15;28.38;;;14.90;;
20511;SDS011;10414;52.074;5.126;2023-01-29T14:50:38;27.55;;;14.15;;
20511;SDS011;10414;52.074;5.126;2023-01-29T14:53:19;30.00;;;14.95;;
20511;SDS011;10414;52.074;5.126;2023-01-29T14:55:54;26.10;;;13.13;;
20511;SDS011;10414;52.074;5.126;2023-01-29T14:58:26;26.42;;;13.48;;
20511;SDS011;10414;52.074;5.126;2023-01-29T15:00:59;28.77;;;14.60;;
20511;SDS011;10414;52.074;5.126;2023-01-29T15:03:33;26.13;;;13.43;;
20511;SDS011;10414;52.074;5.126;2023-01-29T15:06:05;25.83;;;13.02;;
20511;SDS011;10414;52.074;5.126;2023-01-29T15:08:36;29.15;;;13.05;;
20511;SDS011;10414;52.074;5.126;2023-01-29T15:11:06;29.17;;;13.65;;
20511;SDS011;10414;52.074;5.126;2023-01-29T15:13:59;28.30;;;13.60;;
20511;SDS011;10414;52.074;5.126;2023-01-29T15:16:41;28.48;;;14.27;;
20511;SDS011;10414;52.074;5.126;2023-01-29T15:19:15;29.20;;;13.98;;
20511;SDS011;10414;52.074;5.126;2023-01-29T15:24:35;28.08;;;13.52;;
20511;SDS011;10414;52.074;5.126;2023-01-29T15:27:02;29.65;;;13.77;;
20511;SDS011;10414;52.074;5.126;2023-01-29T15:29:31;30.65;;;14.45;;